Frydek, Texas
Current Conditions -  °F | °C
As of 8:15 PM on Wednesday 17 Dec 2014 (Local Time) from KELA Reporting Station
Overcast Overcast  
Wind Chill: 62°   Ceiling: 2200
Heat Index: 62°   Visibility: 10mi
Dew Point: 58°   Wind: 9mph
Humidity: 90%   Direction: 110°ESE
Pressure: 30.08"   Gusts: NA
Location:  29.7835°N, 96.2064°W
Report Text: KELA 180215Z AUTO 11008KT 10SM BKN022 BKN028 OVC034 16/15 A3008 RMK AO2 T01640147
Loading
Personal Weather Stations






























Interactive Weather Map New forecast layout! Learn more

10-Day Weather Forecast

Advertisements
Track Severe Weather on mobile